Portada
METAR-TAF:

METAR-TAF

Aeropuertos :

Aeropuerto de Vigo

Vigo, España

latitud: 42-13N, longitud: 008-38W, altitud: 264 m

Observación

El informe se hizo hace 18 minutos, a las 01:30 UTC
Viento 2 kt con dirección variable
Temperatura 10°C
Humedad 66%
Presión 1017 hPa
Visibilidad 10 km o más
Escasas nubes a una altura de 4700 ft

METAR: LEVX 240130Z VRB02KT 9999 FEW047 10/04 Q1017 NOSIG

Hora: 02:48 (01:48 UTC)

Pronóstico

El informe se hizo hace 2 horas y 48 minutos, a las 23:00 UTC
Pronóstico válido del 24 a las 00 UTC al 24 a las 24 UTC
Viento 5 kt del este
Visibilidad 10 km o más
Nubes dispersas a una altura de 5000 ft

TAF: LEVX 232300Z 2400/2424 08005KT 9999 SCT050 TX13/2415Z TN05/2408Z

Observaciones y pronósticos meteorológicos de más de 4000 aeropuertos (mensajes METAR y TAF).

Los puntos amarillos y rojos representan las estaciones disponibles.

Ponga el ratón en el punto deseado para ver el nombre de la estación.

Haga clic para ver las observaciones y los pronósticos meteorológicos.

Para cambiar el mapa : haga clic en los botones verdes con una cruz de color negro para hacer un zoom, en el botón verde con un guión para alejar o en las flechas verdes para mapas adyacentes.


METAR-TAF: